createdAt,value
2022-10-05T00:33:49.128Z,50.866711
2022-10-05T00:34:49.123Z,50.866737
2022-10-05T00:35:49.113Z,50.866886
2022-10-05T00:36:49.393Z,50.866692
2022-10-05T00:37:49.090Z,50.866711
2022-10-05T00:38:49.086Z,50.866825
2022-10-05T00:39:49.085Z,50.866764
2022-10-05T00:40:49.077Z,50.866909
2022-10-05T00:41:49.061Z,50.867115
2022-10-05T00:42:49.101Z,50.867142
2022-10-05T00:43:49.055Z,50.867184
2022-10-05T00:44:49.038Z,50.866840
2022-10-05T00:45:49.131Z,50.866772
2022-10-05T00:46:49.190Z,50.866707
2022-10-05T00:47:49.015Z,50.866695
2022-10-05T00:48:49.007Z,50.866749
2022-10-05T00:49:49.003Z,50.866680
2022-10-05T00:50:49.017Z,50.866589
2022-10-05T00:51:48.979Z,50.866734
2022-10-05T00:52:48.976Z,50.866776
2022-10-05T00:53:49.008Z,50.866764
2022-10-05T00:54:48.964Z,50.866760
2022-10-05T00:55:48.973Z,50.866741
2022-10-05T00:56:49.103Z,50.866863
2022-10-05T00:57:48.952Z,50.866806
2022-10-05T00:58:48.937Z,50.866711
2022-10-05T00:59:48.912Z,50.866676
2022-10-05T01:00:49.937Z,50.866596
2022-10-05T01:01:48.978Z,50.866756
2022-10-05T01:02:48.963Z,50.866901
2022-10-05T01:03:48.891Z,50.866875
2022-10-05T01:04:48.883Z,50.866856
2022-10-05T01:05:48.873Z,50.866802
2022-10-05T01:06:48.963Z,50.866840
2022-10-05T01:07:48.863Z,50.866810
2022-10-05T01:08:48.851Z,50.866798
2022-10-05T01:09:48.844Z,50.866833
2022-10-05T01:10:48.856Z,50.866871
2022-10-05T01:11:48.848Z,50.866863
2022-10-05T01:12:48.831Z,50.866840
2022-10-05T01:13:48.803Z,50.866882
2022-10-05T01:14:49.814Z,50.866833
2022-10-05T01:15:48.795Z,50.866898
2022-10-05T01:16:49.285Z,50.866791
2022-10-05T01:17:48.784Z,50.867104
2022-10-05T01:18:48.790Z,50.866966
2022-10-05T01:19:48.778Z,50.866844
2022-10-05T01:20:48.756Z,50.866871
2022-10-05T01:21:48.752Z,50.867031
2022-10-05T01:22:48.753Z,50.866962
2022-10-05T01:23:48.739Z,50.866837
2022-10-05T01:24:48.728Z,50.866932
2022-10-05T01:25:48.711Z,50.866852
2022-10-05T01:26:49.064Z,50.866848
2022-10-05T01:27:51.502Z,50.866970
2022-10-05T01:28:48.702Z,50.866913
2022-10-05T01:29:48.680Z,50.866776
2022-10-05T01:30:48.674Z,50.866798
2022-10-05T01:31:48.732Z,50.866734
2022-10-05T01:32:48.662Z,50.866749
2022-10-05T01:33:48.682Z,50.866852
2022-10-05T01:34:48.648Z,50.866859
2022-10-05T01:35:48.632Z,50.866924
2022-10-05T01:36:49.053Z,50.866814
2022-10-05T01:37:48.654Z,50.866844
2022-10-05T01:38:48.612Z,50.866924
2022-10-05T01:39:48.604Z,50.866837
2022-10-05T01:40:48.596Z,50.866879
2022-10-05T01:41:48.588Z,50.867065
2022-10-05T01:42:48.597Z,50.866993
2022-10-05T01:43:48.611Z,50.867004
2022-10-05T01:44:48.576Z,50.867069
2022-10-05T01:45:49.455Z,50.867012
2022-10-05T01:46:48.983Z,50.867069
2022-10-05T01:47:48.540Z,50.867218
2022-10-05T01:48:48.530Z,50.867233
2022-10-05T01:49:48.532Z,50.867188
2022-10-05T01:50:48.519Z,50.867096
2022-10-05T01:51:48.515Z,50.866974
2022-10-05T01:56:55.868Z,50.866444
2022-10-05T01:57:55.859Z,50.866844
2022-10-05T01:58:55.848Z,50.866985
2022-10-05T01:59:55.843Z,50.866348
2022-10-05T02:00:55.873Z,50.866867
2022-10-05T02:01:55.900Z,50.866463
2022-10-05T02:02:55.820Z,50.867054
2022-10-05T02:03:55.811Z,50.867054
2022-10-05T02:05:03.286Z,50.867054
2022-10-05T02:05:57.816Z,50.867054
2022-10-05T02:06:55.799Z,50.867054
2022-10-05T02:07:55.788Z,50.866718
2022-10-05T02:08:55.776Z,50.867062
2022-10-05T02:09:55.769Z,50.866764
2022-10-05T02:10:55.769Z,50.866287
2022-10-05T02:11:55.760Z,50.866428
2022-10-05T02:12:55.759Z,50.866673
2022-10-05T02:13:55.745Z,50.866600
2022-10-05T02:14:55.729Z,50.866631
2022-10-05T02:15:55.730Z,50.866619
2022-10-05T02:16:55.717Z,50.866570
2022-10-05T02:17:55.697Z,50.866592
2022-10-05T02:18:56.239Z,50.866573
2022-10-05T02:19:55.684Z,50.866608
2022-10-05T02:20:55.678Z,50.866611
2022-10-05T02:21:55.691Z,50.866604
2022-10-05T02:22:55.666Z,50.866585
2022-10-05T02:23:55.656Z,50.866570
2022-10-05T02:24:55.636Z,50.866650
2022-10-05T02:25:55.642Z,50.866638
2022-10-05T02:26:55.627Z,50.866631
2022-10-05T02:27:55.662Z,50.866592
2022-10-05T02:28:55.615Z,50.866596
2022-10-05T02:29:55.615Z,50.866573
2022-10-05T02:30:55.593Z,50.866650
2022-10-05T02:31:55.626Z,50.866596
2022-10-05T02:32:55.573Z,50.866508
2022-10-05T02:33:56.170Z,50.866604
2022-10-05T02:34:55.570Z,50.866562
2022-10-05T02:35:57.239Z,50.866684
2022-10-05T02:36:55.542Z,50.866776
2022-10-05T02:37:55.533Z,50.866669
2022-10-05T02:38:55.533Z,50.866619
2022-10-05T02:39:55.519Z,50.866600
2022-10-05T02:40:55.509Z,50.866772
2022-10-05T02:41:55.495Z,50.866528
2022-10-05T02:42:55.510Z,50.866619
2022-10-05T02:43:55.508Z,50.866615
2022-10-05T02:44:56.168Z,50.866688
2022-10-05T02:45:55.525Z,50.866840
2022-10-05T02:46:57.485Z,50.866722
2022-10-05T02:47:57.258Z,50.866665
2022-10-05T02:48:55.452Z,50.866634
2022-10-05T02:49:55.437Z,50.866875
2022-10-05T02:50:55.433Z,50.866760
2022-10-05T02:51:55.421Z,50.866791
2022-10-05T02:52:55.424Z,50.866714
2022-10-05T02:53:55.414Z,50.866634
2022-10-05T02:54:55.407Z,50.866734
2022-10-05T02:55:55.396Z,50.866684
2022-10-05T02:56:55.395Z,50.866676
2022-10-05T02:57:55.385Z,50.866688
2022-10-05T02:58:55.365Z,50.866714
2022-10-05T02:59:55.359Z,50.866722
2022-10-05T03:00:55.509Z,50.866718
2022-10-05T03:01:55.377Z,50.866734
2022-10-05T03:02:55.341Z,50.866646
2022-10-05T03:03:55.316Z,50.866642
2022-10-05T03:04:55.313Z,50.866573
2022-10-05T03:05:55.317Z,50.866611
2022-10-05T03:06:56.248Z,50.866615
2022-10-05T03:07:55.285Z,50.866539
2022-10-05T03:08:55.279Z,50.866531
2022-10-05T03:09:58.883Z,50.866573
2022-10-05T03:10:57.274Z,50.866726
2022-10-05T03:11:55.260Z,50.866711
2022-10-05T03:12:55.257Z,50.866653
2022-10-05T03:13:55.236Z,50.866604
2022-10-05T03:14:55.242Z,50.866577
2022-10-05T03:15:55.298Z,50.866585
2022-10-05T03:16:55.216Z,50.866528
2022-10-05T03:17:55.214Z,50.866669
2022-10-05T03:18:55.349Z,50.866619
2022-10-05T03:19:55.195Z,50.866531
2022-10-05T03:20:55.175Z,50.866573
2022-10-05T03:21:55.169Z,50.866703
2022-10-05T03:22:55.160Z,50.866726
2022-10-05T03:23:55.156Z,50.866707
2022-10-05T03:24:55.167Z,50.866623
2022-10-05T03:25:55.756Z,50.866692
2022-10-05T03:26:55.129Z,50.866657
2022-10-05T03:27:55.175Z,50.866638
2022-10-05T03:28:55.109Z,50.866680
2022-10-05T03:29:55.097Z,50.866684
2022-10-05T03:30:55.187Z,50.866634
2022-10-05T03:31:55.085Z,50.866631
2022-10-05T03:32:55.114Z,50.866661
2022-10-05T03:33:55.072Z,50.866714
2022-10-05T03:34:55.121Z,50.866695
2022-10-05T03:35:55.074Z,50.866661
2022-10-05T03:36:55.047Z,50.866589
2022-10-05T03:37:55.089Z,50.866596
2022-10-05T03:38:55.045Z,50.866554
2022-10-05T03:39:55.026Z,50.866524
2022-10-05T03:40:55.020Z,50.866474
2022-10-05T03:41:55.011Z,50.866550
2022-10-05T03:42:55.012Z,50.866623
2022-10-05T03:43:55.004Z,50.866604
2022-10-05T03:44:54.989Z,50.866520
2022-10-05T03:45:55.046Z,50.866665
2022-10-05T03:46:54.977Z,50.866634
2022-10-05T03:48:01.126Z,50.866730
2022-10-05T03:48:56.954Z,50.866844
2022-10-05T03:49:54.954Z,50.866856
2022-10-05T03:50:54.947Z,50.866882
2022-10-05T03:51:54.936Z,50.866928
2022-10-05T03:52:54.923Z,50.866894
2022-10-05T03:53:54.912Z,50.866962
2022-10-05T03:54:54.914Z,50.866978
2022-10-05T03:55:54.909Z,50.866917
2022-10-05T03:56:54.921Z,50.866901
2022-10-05T03:57:54.888Z,50.866940
2022-10-05T03:58:54.880Z,50.866890
2022-10-05T03:59:54.877Z,50.866856
2022-10-05T04:00:54.861Z,50.866909
2022-10-05T04:01:54.946Z,50.866882
2022-10-05T04:02:54.848Z,50.866928
2022-10-05T04:03:54.836Z,50.866989
2022-10-05T04:04:54.831Z,50.867027
2022-10-05T04:05:54.822Z,50.866997
2022-10-05T04:06:54.830Z,50.866985
2022-10-05T04:07:54.804Z,50.866886
2022-10-05T04:08:54.790Z,50.866852
2022-10-05T04:09:54.782Z,50.866940
2022-10-05T04:10:54.773Z,50.866917
2022-10-05T04:11:54.782Z,50.866917
2022-10-05T04:12:54.766Z,50.866871
2022-10-05T04:13:54.755Z,50.867172
2022-10-05T04:14:54.746Z,50.866997
2022-10-05T04:15:54.806Z,50.866890
2022-10-05T04:16:54.765Z,50.866848
2022-10-05T04:17:54.718Z,50.866898
2022-10-05T04:18:54.721Z,50.866894
2022-10-05T04:19:54.732Z,50.866917
2022-10-05T04:20:54.710Z,50.867058
2022-10-05T04:21:54.699Z,50.867031
2022-10-05T04:22:54.690Z,50.866932
2022-10-05T04:23:54.682Z,50.866909
2022-10-05T04:24:54.666Z,50.866901
2022-10-05T04:25:54.664Z,50.867008
2022-10-05T04:26:54.674Z,50.866982
2022-10-05T04:27:54.691Z,50.866898
2022-10-05T04:28:54.637Z,50.866692
2022-10-05T04:29:54.680Z,50.866940
2022-10-05T04:30:54.621Z,50.866768
2022-10-05T04:31:54.605Z,50.866798
2022-10-05T04:32:54.607Z,50.866806
2022-10-05T04:33:54.590Z,50.866821
2022-10-05T04:34:54.594Z,50.866798
2022-10-05T04:35:54.582Z,50.866768
2022-10-05T04:36:54.575Z,50.866745
2022-10-05T04:37:54.560Z,50.866772
2022-10-05T04:38:54.550Z,50.866764
2022-10-05T04:39:54.578Z,50.866764
2022-10-05T04:40:54.544Z,50.866783
2022-10-05T04:41:54.532Z,50.866806
2022-10-05T04:42:54.527Z,50.866798
2022-10-05T04:43:54.522Z,50.866753
2022-10-05T04:44:58.970Z,50.866795
2022-10-05T04:45:55.504Z,50.866787
2022-10-05T04:46:55.269Z,50.866798
2022-10-05T04:47:54.493Z,50.866798
2022-10-05T04:48:54.476Z,50.866776
2022-10-05T04:49:54.465Z,50.866810
2022-10-05T04:50:54.456Z,50.866795
2022-10-05T04:51:54.463Z,50.866817
2022-10-05T04:52:54.440Z,50.866833
2022-10-05T04:53:54.429Z,50.866840
2022-10-05T04:54:54.491Z,50.866817
2022-10-05T04:55:54.417Z,50.866787
2022-10-05T04:56:54.438Z,50.866814
2022-10-05T04:57:54.408Z,50.866825
2022-10-05T04:58:54.387Z,50.866802
2022-10-05T04:59:54.384Z,50.866730
2022-10-05T05:00:54.412Z,50.866730
2022-10-05T05:01:54.380Z,50.866646
2022-10-05T05:02:54.363Z,50.866650
2022-10-05T05:03:54.373Z,50.866619
2022-10-05T05:04:54.347Z,50.866688
2022-10-05T05:06:15.933Z,50.866722
2022-10-05T05:06:56.349Z,50.866688
2022-10-05T05:07:54.338Z,50.866722
2022-10-05T05:08:54.316Z,50.866661
2022-10-05T05:09:54.318Z,50.866623
2022-10-05T05:10:54.307Z,50.866508
2022-10-05T05:11:54.293Z,50.866604
2022-10-05T05:12:54.291Z,50.866627
2022-10-05T05:13:54.277Z,50.866673
2022-10-05T05:14:54.278Z,50.866726
2022-10-05T05:15:54.322Z,50.866665
2022-10-05T05:16:54.253Z,50.866657
2022-10-05T05:17:54.248Z,50.866680
2022-10-05T05:18:54.246Z,50.866821
2022-10-05T05:19:54.236Z,50.866837
2022-10-05T05:20:54.235Z,50.866737
2022-10-05T05:21:54.213Z,50.866772
2022-10-05T05:22:54.203Z,50.866749
2022-10-05T05:23:54.195Z,50.866772
2022-10-05T05:24:54.190Z,50.866756
2022-10-05T05:25:54.230Z,50.866734
2022-10-05T05:26:54.183Z,50.866718
2022-10-05T05:27:54.203Z,50.866734
2022-10-05T05:28:54.160Z,50.866787
2022-10-05T05:29:54.149Z,50.866734
2022-10-05T05:30:54.184Z,50.866707
2022-10-05T05:31:54.160Z,50.866718
2022-10-05T05:32:54.134Z,50.866707
2022-10-05T05:33:54.127Z,50.866711
2022-10-05T05:34:54.121Z,50.866756
2022-10-05T05:35:54.103Z,50.866756
2022-10-05T05:36:54.723Z,50.866734
2022-10-05T05:37:55.093Z,50.866707
2022-10-05T05:38:54.075Z,50.866791
2022-10-05T05:39:54.068Z,50.866760
2022-10-05T05:40:54.080Z,50.866745
2022-10-05T05:41:54.073Z,50.866749
2022-10-05T05:42:54.044Z,50.866718
2022-10-05T05:43:54.048Z,50.866688
2022-10-05T05:44:54.036Z,50.866734
2022-10-05T05:45:54.041Z,50.866684
2022-10-05T05:47:05.662Z,50.866749
2022-10-05T05:47:56.775Z,50.866772
2022-10-05T05:48:54.003Z,50.866760
2022-10-05T05:49:54.076Z,50.866787
2022-10-05T05:50:53.992Z,50.866722
2022-10-05T05:51:54.016Z,50.866783
2022-10-05T05:52:54.000Z,50.866768
2022-10-05T05:53:53.958Z,50.866802
2022-10-05T05:54:53.988Z,50.866692
2022-10-05T05:55:53.943Z,50.866745
2022-10-05T05:56:53.953Z,50.866779
2022-10-05T05:57:53.939Z,50.866711
2022-10-05T05:58:53.928Z,50.866741
2022-10-05T05:59:54.912Z,50.866756
2022-10-05T06:00:53.914Z,50.866726
2022-10-05T06:01:54.025Z,50.866764
2022-10-05T06:02:53.998Z,50.866711
2022-10-05T06:03:53.925Z,50.866726
2022-10-05T06:04:53.877Z,50.866741
2022-10-05T06:05:53.886Z,50.866753
2022-10-05T06:07:30.369Z,50.866779
2022-10-05T06:07:53.877Z,50.866749
2022-10-05T06:08:53.839Z,50.866737
2022-10-05T06:09:53.866Z,50.866741
2022-10-05T06:10:53.820Z,50.866764
2022-10-05T06:11:53.813Z,50.866753
2022-10-05T06:12:56.423Z,50.866745
2022-10-05T06:13:53.802Z,50.866707
2022-10-05T06:14:53.801Z,50.866753
2022-10-05T06:15:53.862Z,50.866730
2022-10-05T06:16:53.897Z,50.866745
2022-10-05T06:17:53.783Z,50.866772
2022-10-05T06:18:53.765Z,50.866787
2022-10-05T06:19:53.753Z,50.866745
2022-10-05T06:20:53.787Z,50.866718
2022-10-05T06:21:53.746Z,50.866722
2022-10-05T06:22:53.742Z,50.866737
2022-10-05T06:23:53.715Z,50.866764
2022-10-05T06:24:53.706Z,50.866760
2022-10-05T06:25:53.715Z,50.866798
2022-10-05T06:26:53.697Z,50.866806
2022-10-05T06:27:54.373Z,50.866814
2022-10-05T06:28:53.684Z,50.866795
2022-10-05T06:29:53.678Z,50.866776
2022-10-05T06:30:53.675Z,50.866798
2022-10-05T06:31:58.568Z,50.866776
2022-10-05T06:32:55.663Z,50.866760
2022-10-05T06:33:53.635Z,50.866726
2022-10-05T06:34:53.625Z,50.866856
2022-10-05T06:35:53.619Z,50.866795
2022-10-05T06:36:53.607Z,50.866821
2022-10-05T06:37:53.647Z,50.866768
2022-10-05T06:38:53.603Z,50.866749
2022-10-05T06:39:55.472Z,50.866787
2022-10-05T06:40:54.586Z,50.866772
2022-10-05T06:41:53.569Z,50.866783
2022-10-05T06:42:53.567Z,50.866829
2022-10-05T06:43:53.553Z,50.866840
2022-10-05T06:44:53.559Z,50.866829
2022-10-05T06:45:53.622Z,50.866760
2022-10-05T06:46:53.551Z,50.866791
2022-10-05T06:47:53.530Z,50.866791
2022-10-05T06:48:53.511Z,50.866768
2022-10-05T06:49:54.251Z,50.866749
2022-10-05T06:50:53.495Z,50.866734
2022-10-05T06:51:53.495Z,50.866844
2022-10-05T06:52:53.477Z,50.866806
2022-10-05T06:53:53.480Z,50.866856
2022-10-05T06:54:53.460Z,50.866871
2022-10-05T06:55:53.464Z,50.866837
2022-10-05T06:56:53.449Z,50.866905
2022-10-05T06:57:53.456Z,50.866844
2022-10-05T06:58:53.433Z,50.866817
2022-10-05T06:59:53.419Z,50.866623
2022-10-05T07:00:53.447Z,50.866817
2022-10-05T07:01:54.448Z,50.866905
2022-10-05T07:02:53.421Z,50.866737
2022-10-05T07:03:53.388Z,50.866749
2022-10-05T07:04:53.377Z,50.866573
2022-10-05T07:05:53.371Z,50.866478
2022-10-05T07:06:53.365Z,50.866631
2022-10-05T07:07:53.405Z,50.866646
2022-10-05T07:08:53.347Z,50.866741
2022-10-05T07:09:53.344Z,50.866669
2022-10-05T07:10:53.334Z,50.866676
2022-10-05T07:11:58.462Z,50.866764
2022-10-05T07:12:55.313Z,50.866871
2022-10-05T07:13:54.307Z,50.866817
2022-10-05T07:14:53.297Z,50.866776
2022-10-05T07:15:54.876Z,50.866810
2022-10-05T07:16:54.380Z,50.866741
2022-10-05T07:17:53.279Z,50.866653
2022-10-05T07:18:53.871Z,50.866737
2022-10-05T07:19:53.268Z,50.866802
2022-10-05T07:20:53.251Z,50.866795
2022-10-05T07:21:53.252Z,50.866760
2022-10-05T07:22:53.243Z,50.866730
2022-10-05T07:23:53.238Z,50.866741
2022-10-05T07:24:53.236Z,50.866734
2022-10-05T07:25:53.213Z,50.866711
2022-10-05T07:26:53.228Z,50.866684
2022-10-05T07:27:53.300Z,50.866684
2022-10-05T07:28:53.196Z,50.866695
2022-10-05T07:29:53.188Z,50.866772
2022-10-05T07:30:53.198Z,50.866783
2022-10-05T07:31:53.160Z,50.866745
2022-10-05T07:32:53.162Z,50.866711
2022-10-05T07:33:53.156Z,50.866798
2022-10-05T07:34:53.133Z,50.866837
2022-10-05T07:35:53.134Z,50.866802
2022-10-05T07:36:55.026Z,50.866749
2022-10-05T07:37:54.110Z,50.866718
2022-10-05T07:38:53.117Z,50.866737
2022-10-05T07:40:00.447Z,50.866753
2022-10-05T07:40:55.095Z,50.866734
2022-10-05T07:41:53.081Z,50.866768
2022-10-05T07:42:53.085Z,50.866756
2022-10-05T07:44:12.598Z,50.866798
2022-10-05T07:44:55.262Z,50.866802
2022-10-05T07:45:53.114Z,50.866810
2022-10-05T07:46:53.660Z,50.866760
2022-10-05T07:47:54.306Z,50.866772
2022-10-05T07:48:53.050Z,50.866833
2022-10-05T07:49:54.093Z,50.866814
2022-10-05T07:50:53.028Z,50.866798
2022-10-05T07:51:53.003Z,50.866798
2022-10-05T07:52:52.987Z,50.866779
2022-10-05T07:53:53.813Z,50.866756
2022-10-05T07:54:55.877Z,50.866795
2022-10-05T07:55:53.131Z,50.866798
2022-10-05T07:56:53.156Z,50.866756
2022-10-05T07:57:52.980Z,50.866718
2022-10-05T07:58:52.943Z,50.866768
2022-10-05T07:59:52.934Z,50.866734
2022-10-05T08:00:52.936Z,50.866722
2022-10-05T08:01:53.014Z,50.866714
2022-10-05T08:02:52.964Z,50.866703
2022-10-05T08:03:52.901Z,50.866657
2022-10-05T08:04:52.908Z,50.866692
2022-10-05T08:05:52.891Z,50.866707
2022-10-05T08:06:52.876Z,50.866749
2022-10-05T08:07:52.907Z,50.866737
2022-10-05T08:08:52.874Z,50.866718
2022-10-05T08:09:52.851Z,50.866692
2022-10-05T08:10:52.850Z,50.866753
2022-10-05T08:11:52.841Z,50.866817
2022-10-05T08:12:52.856Z,50.866741
2022-10-05T08:13:53.793Z,50.866718
2022-10-05T08:14:53.805Z,50.866787
2022-10-05T08:15:53.932Z,50.866779
2022-10-05T08:16:52.806Z,50.866741
2022-10-05T08:17:52.782Z,50.866760
2022-10-05T08:18:52.774Z,50.866749
2022-10-05T08:19:52.768Z,50.866817
2022-10-05T08:20:52.789Z,50.866760
2022-10-05T08:21:52.754Z,50.866726
2022-10-05T08:22:52.779Z,50.866718
2022-10-05T08:23:52.783Z,50.866730
2022-10-05T08:24:52.727Z,50.866753
2022-10-05T08:25:52.760Z,50.866791
2022-10-05T08:26:52.717Z,50.866802
2022-10-05T08:27:52.831Z,50.866795
2022-10-05T08:28:52.695Z,50.866802
2022-10-05T08:29:52.690Z,50.866776
2022-10-05T08:30:52.713Z,50.866772
2022-10-05T08:31:52.682Z,50.866802
2022-10-05T08:32:52.666Z,50.866760
2022-10-05T08:33:52.651Z,50.866783
2022-10-05T08:34:53.276Z,50.866768
2022-10-05T08:35:52.647Z,50.866776
2022-10-05T08:36:54.000Z,50.866726
2022-10-05T08:37:53.640Z,50.866776
2022-10-05T08:38:52.622Z,50.866863
2022-10-05T08:39:52.605Z,50.866791
2022-10-05T08:40:52.610Z,50.866692
2022-10-05T08:41:52.599Z,50.866852
2022-10-05T08:42:52.678Z,50.866779
2022-10-05T08:43:52.586Z,50.866734
2022-10-05T08:44:52.567Z,50.867027
2022-10-05T08:45:52.592Z,50.866825
2022-10-05T08:46:52.558Z,50.866756
2022-10-05T08:47:52.546Z,50.866776
2022-10-05T08:48:52.562Z,50.866673
2022-10-05T08:49:52.534Z,50.866676
2022-10-05T08:50:52.518Z,50.866657
2022-10-05T08:51:52.524Z,50.866695
2022-10-05T08:52:52.506Z,50.866749
2022-10-05T08:53:52.502Z,50.866879
2022-10-05T08:54:52.485Z,50.866806
2022-10-05T08:55:52.476Z,50.866837
2022-10-05T08:56:52.474Z,50.866745
2022-10-05T08:57:52.466Z,50.866829
2022-10-05T08:58:52.461Z,50.866920
2022-10-05T08:59:53.440Z,50.866898
2022-10-05T09:00:52.457Z,50.867085
2022-10-05T09:01:52.470Z,50.866848
2022-10-05T09:02:52.605Z,50.866829
2022-10-05T09:03:52.410Z,50.866901
2022-10-05T09:04:53.405Z,50.866978
2022-10-05T09:05:52.426Z,50.867157
2022-10-05T09:06:52.395Z,50.867065
2022-10-05T09:07:52.393Z,50.866909
2022-10-05T09:08:52.374Z,50.867023
2022-10-05T09:09:52.408Z,50.866837
2022-10-05T09:10:52.366Z,50.867085
2022-10-05T09:11:52.367Z,50.866989
2022-10-05T09:12:52.373Z,50.867023
2022-10-05T09:13:52.330Z,50.866653
2022-10-05T09:15:01.525Z,50.866722
2022-10-05T09:15:54.389Z,50.866753
2022-10-05T09:16:52.308Z,50.866673
2022-10-05T09:17:52.297Z,50.866669
2022-10-05T09:18:52.290Z,50.866669
2022-10-05T09:19:52.289Z,50.866711
2022-10-05T09:20:52.278Z,50.866592
2022-10-05T09:21:52.274Z,50.866688
2022-10-05T09:22:52.269Z,50.866810
2022-10-05T09:23:52.253Z,50.866772
2022-10-05T09:24:52.261Z,50.866734
2022-10-05T09:25:52.281Z,50.866722
2022-10-05T09:26:52.232Z,50.866699
2022-10-05T09:27:52.225Z,50.866692
2022-10-05T09:28:52.225Z,50.866665
2022-10-05T09:29:52.220Z,50.866566
2022-10-05T09:30:52.230Z,50.866589
2022-10-05T09:31:52.230Z,50.866653
2022-10-05T09:32:52.183Z,50.866631
2022-10-05T09:33:52.543Z,50.866585
2022-10-05T09:34:52.164Z,50.866623
2022-10-05T09:35:52.151Z,50.866596
2022-10-05T09:36:52.161Z,50.866688
2022-10-05T09:37:52.162Z,50.866673
2022-10-05T09:38:52.139Z,50.866589
2022-10-05T09:39:52.122Z,50.866535
2022-10-05T09:40:52.110Z,50.866501
2022-10-05T09:41:52.104Z,50.866581
2022-10-05T09:42:52.752Z,50.866718
2022-10-05T09:43:52.084Z,50.866695
2022-10-05T09:44:52.074Z,50.866680
2022-10-05T09:45:52.131Z,50.866814
2022-10-05T09:46:52.066Z,50.866688
2022-10-05T09:47:52.069Z,50.866756
2022-10-05T09:48:52.048Z,50.867085
2022-10-05T09:49:52.029Z,50.866978
2022-10-05T09:50:52.030Z,50.866959
2022-10-05T09:51:52.030Z,50.866940
2022-10-05T09:52:52.013Z,50.866817
2022-10-05T09:53:52.005Z,50.866798
2022-10-05T09:54:51.994Z,50.866875
2022-10-05T09:55:52.001Z,50.866928
2022-10-05T09:56:51.977Z,50.866852
2022-10-05T09:57:53.250Z,50.866886
2022-10-05T09:58:52.964Z,50.866909
2022-10-05T09:59:51.962Z,50.866936
2022-10-05T10:00:59.469Z,50.866894
2022-10-05T10:01:53.280Z,50.867050
2022-10-05T10:02:52.058Z,50.867104
2022-10-05T10:03:51.949Z,50.867321
2022-10-05T10:04:51.914Z,50.867474
2022-10-05T10:05:51.933Z,50.867275
2022-10-05T10:06:51.901Z,50.867008
2022-10-05T10:07:51.893Z,50.866653
2022-10-05T10:08:51.896Z,50.866768
2022-10-05T10:09:51.883Z,50.866741
2022-10-05T10:10:51.869Z,50.866692
2022-10-05T10:11:51.874Z,50.866619
2022-10-05T10:12:51.850Z,50.866631
2022-10-05T10:13:51.843Z,50.866581
2022-10-05T10:14:51.839Z,50.866615
2022-10-05T10:15:51.894Z,50.866619
2022-10-05T10:16:51.812Z,50.866634
2022-10-05T10:17:51.807Z,50.866611
2022-10-05T10:18:51.812Z,50.866631
2022-10-05T10:19:51.806Z,50.866585
2022-10-05T10:20:51.791Z,50.866585
2022-10-05T10:21:51.788Z,50.866611
2022-10-05T10:22:51.774Z,50.866596
2022-10-05T10:23:51.797Z,50.866604
2022-10-05T10:24:51.762Z,50.866631
2022-10-05T10:25:51.741Z,50.866619
2022-10-05T10:26:51.752Z,50.866665
2022-10-05T10:27:52.548Z,50.866676
2022-10-05T10:28:52.731Z,50.866650
2022-10-05T10:29:51.721Z,50.866642
2022-10-05T10:30:51.771Z,50.866604
2022-10-05T10:31:51.704Z,50.866634
2022-10-05T10:32:51.695Z,50.866726
2022-10-05T10:33:51.694Z,50.866814
2022-10-05T10:34:51.672Z,50.866798
2022-10-05T10:35:51.689Z,50.866837
2022-10-05T10:36:51.914Z,50.866776
2022-10-05T10:37:54.559Z,50.866760
2022-10-05T10:38:51.649Z,50.866688
2022-10-05T10:39:51.635Z,50.866726
2022-10-05T10:40:51.639Z,50.866711
2022-10-05T10:41:51.612Z,50.866825
2022-10-05T10:42:51.621Z,50.866814
2022-10-05T10:43:52.347Z,50.866783
2022-10-05T10:44:51.605Z,50.866726
2022-10-05T10:45:52.321Z,50.866741
2022-10-05T10:46:52.145Z,50.866707
2022-10-05T10:47:51.918Z,50.866749
2022-10-05T10:48:51.562Z,50.866745
2022-10-05T10:49:52.483Z,50.866734
2022-10-05T10:50:51.563Z,50.866703
2022-10-05T10:51:51.552Z,50.866730
2022-10-05T10:52:51.533Z,50.866783
2022-10-05T10:53:53.321Z,50.866814
2022-10-05T10:54:51.515Z,50.866756
2022-10-05T10:55:52.427Z,50.866867
2022-10-05T10:56:51.967Z,50.866890
2022-10-05T10:57:51.490Z,50.866871
2022-10-05T10:58:51.485Z,50.866844
2022-10-05T10:59:51.467Z,50.866871
2022-10-05T11:00:52.475Z,50.866840
2022-10-05T11:01:51.963Z,50.866806
2022-10-05T11:02:51.548Z,50.866905
2022-10-05T11:03:51.448Z,50.866886
2022-10-05T11:04:51.443Z,50.866848
2022-10-05T11:05:51.432Z,50.866783
2022-10-05T11:06:51.433Z,50.866814
2022-10-05T11:07:51.422Z,50.866776
2022-10-05T11:08:51.440Z,50.866791
2022-10-05T11:09:51.462Z,50.866795
2022-10-05T11:10:51.393Z,50.866783
2022-10-05T11:11:51.788Z,50.866825
2022-10-05T11:12:51.407Z,50.866821
2022-10-05T11:13:51.359Z,50.866817
2022-10-05T11:14:53.338Z,50.866783
2022-10-05T11:15:51.469Z,50.866817
2022-10-05T11:16:51.661Z,50.866802
2022-10-05T11:17:51.337Z,50.866806
2022-10-05T11:25:59.282Z,50.866825
2022-10-05T11:26:59.259Z,50.866840
2022-10-05T11:27:59.334Z,50.866871
2022-10-05T11:28:59.248Z,50.866867
2022-10-05T11:29:59.233Z,50.866856
2022-10-05T11:30:59.284Z,50.866901
2022-10-05T11:31:59.248Z,50.866875
2022-10-05T11:32:59.215Z,50.866863
2022-10-05T11:33:59.194Z,50.866879
2022-10-05T11:34:59.187Z,50.866879
2022-10-05T11:35:59.194Z,50.866859
2022-10-05T11:36:59.211Z,50.866833
2022-10-05T11:37:59.163Z,50.866817
2022-10-05T11:38:59.173Z,50.866833
2022-10-05T11:39:59.144Z,50.866833
2022-10-05T11:40:59.138Z,50.866833
2022-10-05T11:41:59.146Z,50.866833
2022-10-05T11:42:59.126Z,50.866852
2022-10-05T11:44:03.259Z,50.866848
2022-10-05T11:45:00.122Z,50.866844
2022-10-05T11:46:00.638Z,50.866810
2022-10-05T11:47:00.092Z,50.866764
2022-10-05T11:47:59.657Z,50.866768
2022-10-05T11:48:59.088Z,50.866749
2022-10-05T11:49:59.071Z,50.866741
2022-10-05T11:50:59.060Z,50.866749
2022-10-05T11:51:59.056Z,50.866726
2022-10-05T11:52:59.047Z,50.866722
2022-10-05T11:53:59.030Z,50.866726
2022-10-05T11:55:10.255Z,50.866692
2022-10-05T11:56:01.025Z,50.866676
2022-10-05T11:56:59.297Z,50.866699
2022-10-05T11:57:59.009Z,50.866722
2022-10-05T11:58:58.997Z,50.866718
2022-10-05T11:59:58.987Z,50.866703
2022-10-05T12:00:58.979Z,50.866718
2022-10-05T12:01:59.587Z,50.866726
2022-10-05T12:02:59.075Z,50.866718
2022-10-05T12:03:59.119Z,50.866753
2022-10-05T12:04:58.954Z,50.866768
2022-10-05T12:05:58.944Z,50.866745
2022-10-05T12:06:58.966Z,50.866753
2022-10-05T12:07:59.669Z,50.866760
2022-10-05T12:08:58.937Z,50.866768